createdAt,value
2022-12-13T00:01:06.417Z,41.10
2022-12-13T00:03:32.882Z,41.00
2022-12-13T00:05:59.377Z,41.10
2022-12-13T00:08:25.868Z,41.10
2022-12-13T00:10:52.344Z,41.10
2022-12-13T00:13:18.834Z,41.30
2022-12-13T00:15:45.303Z,41.30
2022-12-13T00:18:11.773Z,42.00
2022-12-13T00:20:38.245Z,41.00
2022-12-13T00:23:04.710Z,41.20
2022-12-13T00:25:31.184Z,41.30
2022-12-13T00:27:57.659Z,41.10
2022-12-13T00:30:24.153Z,41.30
2022-12-13T00:32:50.622Z,41.20
2022-12-13T00:35:17.248Z,41.20
2022-12-13T00:37:43.854Z,41.50
2022-12-13T00:40:10.339Z,41.00
2022-12-13T00:42:36.800Z,41.30
2022-12-13T00:45:03.299Z,41.10
2022-12-13T00:47:29.766Z,41.30
2022-12-13T00:49:56.233Z,41.30
2022-12-13T00:52:22.702Z,41.10
2022-12-13T00:54:49.173Z,40.90
2022-12-13T00:57:15.647Z,40.80
2022-12-13T00:59:42.120Z,41.00
2022-12-13T01:02:08.579Z,40.90
2022-12-13T01:04:35.055Z,40.80
2022-12-13T01:07:01.543Z,40.70
2022-12-13T01:09:28.002Z,40.70
2022-12-13T01:11:54.455Z,40.50
2022-12-13T01:14:20.915Z,40.70
2022-12-13T01:16:47.513Z,40.80
2022-12-13T01:19:14.096Z,40.60
2022-12-13T01:21:40.578Z,40.50
2022-12-13T01:24:07.058Z,40.40
2022-12-13T01:26:33.525Z,40.50
2022-12-13T01:28:59.993Z,40.40
2022-12-13T01:31:26.464Z,40.50
2022-12-13T01:33:52.955Z,40.50
2022-12-13T01:36:19.427Z,40.80
2022-12-13T01:38:53.630Z,40.50
2022-12-13T01:41:27.209Z,40.30
2022-12-13T01:43:54.131Z,40.30
2022-12-13T01:46:20.623Z,40.20
2022-12-13T01:48:47.116Z,40.20
2022-12-13T01:51:13.572Z,40.20
2022-12-13T01:53:40.059Z,40.30
2022-12-13T01:56:06.515Z,40.40
2022-12-13T01:58:35.319Z,40.30
2022-12-13T02:01:01.959Z,40.40
2022-12-13T02:03:28.464Z,40.30
2022-12-13T02:05:54.958Z,40.10
2022-12-13T02:08:21.468Z,40.10
2022-12-13T02:10:47.979Z,40.10
2022-12-13T02:13:14.447Z,40.10
2022-12-13T02:15:40.945Z,39.90
2022-12-13T02:18:07.429Z,40.00
2022-12-13T02:20:33.903Z,40.00
2022-12-13T02:23:00.438Z,40.00
2022-12-13T02:25:28.883Z,40.00
2022-12-13T02:28:00.517Z,40.00
2022-12-13T02:30:27.446Z,40.10
2022-12-13T02:32:53.900Z,39.90
2022-12-13T02:35:20.372Z,39.70
2022-12-13T02:37:46.843Z,39.60
2022-12-13T02:40:13.297Z,39.80
2022-12-13T02:42:39.756Z,39.90
2022-12-13T02:45:06.235Z,40.00
2022-12-13T02:47:32.695Z,39.90
2022-12-13T02:49:59.163Z,39.90
2022-12-13T02:52:25.631Z,39.90
2022-12-13T02:54:52.120Z,39.90
2022-12-13T02:57:21.860Z,40.00
2022-12-13T02:59:48.384Z,40.00
2022-12-13T03:02:21.504Z,39.90
2022-12-13T03:04:57.812Z,39.80
2022-12-13T03:07:24.295Z,40.00
2022-12-13T03:09:50.762Z,40.10
2022-12-13T03:12:17.241Z,39.90
2022-12-13T03:14:43.707Z,39.60
2022-12-13T03:17:10.171Z,39.70
2022-12-13T03:19:36.640Z,39.70
2022-12-13T03:22:03.102Z,39.50
2022-12-13T03:24:35.589Z,39.50
2022-12-13T03:27:02.070Z,39.60
2022-12-13T03:29:28.563Z,39.50
2022-12-13T03:31:55.043Z,39.50
2022-12-13T03:34:23.068Z,39.50
2022-12-13T03:36:50.282Z,39.50
2022-12-13T03:39:16.746Z,39.20
2022-12-13T03:41:43.239Z,39.30
2022-12-13T03:44:09.729Z,39.10
2022-12-13T03:46:36.255Z,39.30
2022-12-13T03:49:02.754Z,39.20
2022-12-13T03:51:29.245Z,39.30
2022-12-13T03:53:55.694Z,39.30
2022-12-13T03:56:22.181Z,39.10
2022-12-13T03:58:48.648Z,39.40
2022-12-13T04:01:15.110Z,39.30
2022-12-13T04:03:41.602Z,39.30
2022-12-13T04:06:08.075Z,39.40
2022-12-13T04:08:34.669Z,39.10
2022-12-13T04:11:01.213Z,39.20
2022-12-13T04:13:27.695Z,39.20
2022-12-13T04:15:59.589Z,39.20
2022-12-13T04:18:26.088Z,39.20
2022-12-13T04:20:52.543Z,39.00
2022-12-13T04:23:19.011Z,39.00
2022-12-13T04:25:45.579Z,39.10
2022-12-13T04:28:12.055Z,39.20
2022-12-13T04:30:48.348Z,39.00
2022-12-13T04:33:20.051Z,39.10
2022-12-13T04:35:46.508Z,38.90
2022-12-13T04:38:12.997Z,38.80
2022-12-13T04:40:39.486Z,38.90
2022-12-13T04:43:05.977Z,39.10
2022-12-13T04:45:32.489Z,38.80
2022-12-13T04:47:59.004Z,39.00
2022-12-13T04:50:25.466Z,38.80
2022-12-13T04:52:52.003Z,38.80
2022-12-13T04:55:18.493Z,38.70
2022-12-13T04:57:44.981Z,38.40
2022-12-13T05:00:11.456Z,38.50
2022-12-13T05:02:37.998Z,38.60
2022-12-13T05:05:04.532Z,38.50
2022-12-13T05:07:30.985Z,38.50
2022-12-13T05:09:57.462Z,38.60
2022-12-13T05:12:23.934Z,38.60
2022-12-13T05:14:50.420Z,38.90
2022-12-13T05:17:16.888Z,39.00
2022-12-13T05:19:43.369Z,38.90
2022-12-13T05:22:12.497Z,38.60
2022-12-13T05:24:41.274Z,38.50
2022-12-13T05:27:25.864Z,38.40
2022-12-13T05:30:03.863Z,38.50
2022-12-13T05:32:31.121Z,38.50
2022-12-13T05:34:57.582Z,38.40
2022-12-13T05:37:24.045Z,38.90
2022-12-13T05:39:50.520Z,38.70
2022-12-13T05:42:16.992Z,38.70
2022-12-13T05:44:43.485Z,38.60
2022-12-13T05:47:09.966Z,38.30
2022-12-13T05:49:36.436Z,38.10
2022-12-13T05:52:06.150Z,38.50
2022-12-13T05:54:32.624Z,38.60
2022-12-13T05:56:59.079Z,38.30
2022-12-13T05:59:25.557Z,38.30
2022-12-13T06:01:52.088Z,38.40
2022-12-13T06:04:22.271Z,38.10
2022-12-13T06:06:50.847Z,38.30
2022-12-13T06:09:17.536Z,38.10
2022-12-13T06:11:44.010Z,38.50
2022-12-13T06:14:21.265Z,38.40
2022-12-13T06:16:49.464Z,38.40
2022-12-13T06:19:15.973Z,38.40
2022-12-13T06:21:46.227Z,38.50
2022-12-13T06:24:13.176Z,38.20
2022-12-13T06:26:39.672Z,38.20
2022-12-13T06:29:06.182Z,38.20
2022-12-13T06:31:32.642Z,38.30
2022-12-13T06:33:59.125Z,38.40
2022-12-13T06:36:40.479Z,38.20
2022-12-13T06:39:06.982Z,38.00
2022-12-13T06:41:33.468Z,38.00
2022-12-13T06:43:59.936Z,38.00
2022-12-13T06:46:26.425Z,38.00
2022-12-13T06:48:52.920Z,38.20
2022-12-13T06:51:22.944Z,38.10
2022-12-13T06:53:49.705Z,37.90
2022-12-13T06:56:16.172Z,38.00
2022-12-13T06:58:42.636Z,38.20
2022-12-13T07:01:15.094Z,37.90
2022-12-13T07:03:50.794Z,37.70
2022-12-13T07:06:17.268Z,38.00
2022-12-13T07:08:43.741Z,38.00
2022-12-13T07:11:10.232Z,37.70
2022-12-13T07:13:36.678Z,37.80
2022-12-13T07:16:03.205Z,37.80
2022-12-13T07:18:29.699Z,37.80
2022-12-13T07:20:56.172Z,37.80
2022-12-13T07:23:24.359Z,37.70
2022-12-13T07:25:51.220Z,37.90
2022-12-13T07:28:17.718Z,37.70
2022-12-13T07:30:44.152Z,37.60
2022-12-13T07:33:10.628Z,37.70
2022-12-13T07:35:37.863Z,37.70
2022-12-13T07:38:04.444Z,37.60
2022-12-13T07:40:30.923Z,37.50
2022-12-13T07:42:57.386Z,37.30
2022-12-13T07:45:23.871Z,37.40
2022-12-13T07:47:50.338Z,37.60
2022-12-13T07:50:24.686Z,37.30
2022-12-13T07:52:51.790Z,37.50
2022-12-13T07:55:18.294Z,37.30
2022-12-13T07:57:49.866Z,37.50
2022-12-13T08:00:16.348Z,37.30
2022-12-13T08:02:42.821Z,37.30
2022-12-13T08:05:25.683Z,37.30
2022-12-13T08:07:53.344Z,37.20
2022-12-13T08:10:19.876Z,37.50
2022-12-13T08:12:46.362Z,37.40
2022-12-13T08:15:14.322Z,37.50
2022-12-13T08:17:40.954Z,37.40
2022-12-13T08:20:07.440Z,37.50
2022-12-13T08:22:35.758Z,37.30
2022-12-13T08:25:02.743Z,37.50
2022-12-13T08:27:29.224Z,37.40
2022-12-13T08:29:55.701Z,37.20
2022-12-13T08:32:22.169Z,37.20
2022-12-13T08:34:48.633Z,37.20
2022-12-13T08:37:15.106Z,37.10
2022-12-13T08:39:41.567Z,37.10
2022-12-13T08:42:16.679Z,37.30
2022-12-13T08:44:44.590Z,37.20
2022-12-13T08:47:11.105Z,37.30
2022-12-13T08:49:37.563Z,37.10
2022-12-13T08:52:04.019Z,37.10
2022-12-13T08:54:31.746Z,37.40
2022-12-13T08:56:58.359Z,37.30
2022-12-13T08:59:24.833Z,37.30
2022-12-13T09:01:53.726Z,37.30
2022-12-13T09:04:31.468Z,37.40
2022-12-13T09:07:01.852Z,37.50
2022-12-13T09:09:28.540Z,37.50
2022-12-13T09:11:59.739Z,37.30
2022-12-13T09:14:26.593Z,37.30
2022-12-13T09:17:03.049Z,37.60
2022-12-13T09:19:30.136Z,37.30
2022-12-13T09:22:03.780Z,37.50
2022-12-13T09:24:36.273Z,37.50
2022-12-13T09:27:03.459Z,37.60
2022-12-13T09:29:36.441Z,37.40
2022-12-13T09:32:02.970Z,37.50
2022-12-13T09:34:29.612Z,37.80
2022-12-13T09:36:56.143Z,37.60
2022-12-13T09:39:28.517Z,37.60
2022-12-13T09:42:00.782Z,37.40
2022-12-13T09:44:32.009Z,37.60
2022-12-13T09:47:13.649Z,37.60
2022-12-13T09:49:40.506Z,37.70
2022-12-13T09:52:10.970Z,37.60
2022-12-13T09:54:47.119Z,37.40
2022-12-13T09:57:14.526Z,37.70
2022-12-13T10:00:01.310Z,37.50
2022-12-13T10:02:28.597Z,37.60
2022-12-13T10:04:55.147Z,37.80
2022-12-13T10:07:28.218Z,37.70
2022-12-13T10:09:54.697Z,37.50
2022-12-13T10:12:21.185Z,37.80
2022-12-13T10:14:47.652Z,37.90
2022-12-13T10:17:14.135Z,38.10
2022-12-13T10:19:40.598Z,37.80
2022-12-13T10:22:07.076Z,37.90
2022-12-13T10:24:37.474Z,38.00
2022-12-13T10:27:04.371Z,37.80
2022-12-13T10:29:30.910Z,38.00
2022-12-13T10:31:57.488Z,38.00
2022-12-13T10:48:31.465Z,38.10
2022-12-13T10:51:09.289Z,38.00
2022-12-13T10:53:35.787Z,38.20
2022-12-13T10:56:03.462Z,38.10
2022-12-13T10:58:29.912Z,38.00
2022-12-13T11:00:56.430Z,38.00
2022-12-13T11:03:23.182Z,38.40
2022-12-13T11:05:49.874Z,38.20
2022-12-13T11:08:16.381Z,38.20
2022-12-13T11:10:42.883Z,38.20
2022-12-13T11:13:09.341Z,38.10
2022-12-13T11:15:35.819Z,38.20
2022-12-13T11:18:02.298Z,38.10
2022-12-13T11:20:28.748Z,38.10
2022-12-13T11:22:55.227Z,38.10
2022-12-13T11:25:21.699Z,38.20
2022-12-13T11:27:48.168Z,38.30
2022-12-13T11:30:14.656Z,38.60
2022-12-13T11:32:41.145Z,38.40
2022-12-13T11:35:07.599Z,38.30
2022-12-13T11:37:34.048Z,38.50
2022-12-13T11:40:01.565Z,38.30
2022-12-13T11:42:28.397Z,38.30
2022-12-13T11:44:54.860Z,38.30
2022-12-13T11:47:21.334Z,38.10
2022-12-13T11:49:47.808Z,38.30
2022-12-13T11:52:14.277Z,38.50
2022-12-13T11:54:40.747Z,38.40
2022-12-13T11:57:07.220Z,38.50
2022-12-13T11:59:40.005Z,38.40
2022-12-13T12:02:07.129Z,38.40
2022-12-13T12:04:43.617Z,38.50
2022-12-13T12:07:31.056Z,38.40
2022-12-13T12:09:56.553Z,38.40
2022-12-13T12:12:23.042Z,38.40
2022-12-13T12:14:49.516Z,38.40
2022-12-13T12:17:18.776Z,38.40
2022-12-13T12:19:45.251Z,38.40
2022-12-13T12:22:14.653Z,38.30
2022-12-13T12:24:47.894Z,38.50
2022-12-13T12:27:14.386Z,38.70
2022-12-13T12:29:49.307Z,38.50
2022-12-13T12:32:15.798Z,38.90
2022-12-13T12:34:42.255Z,38.80
2022-12-13T12:37:08.795Z,38.70
2022-12-13T12:39:35.248Z,38.80
2022-12-13T12:42:01.696Z,38.70
2022-12-13T12:44:30.822Z,39.40
2022-12-13T12:47:19.227Z,38.50
2022-12-13T12:49:44.218Z,38.70
2022-12-13T12:52:10.672Z,38.60
2022-12-13T12:54:37.144Z,38.80
2022-12-13T12:57:03.608Z,38.60
2022-12-13T12:59:30.092Z,38.60
2022-12-13T13:02:00.108Z,39.30
2022-12-13T13:04:29.883Z,38.70
2022-12-13T13:07:01.346Z,38.80
2022-12-13T13:09:28.519Z,38.80
2022-12-13T13:11:57.764Z,38.80
2022-12-13T13:14:29.906Z,38.50
2022-12-13T13:16:56.374Z,38.60
2022-12-13T13:19:25.425Z,38.60
2022-12-13T13:21:52.480Z,38.60
2022-12-13T13:24:18.943Z,38.60
2022-12-13T13:26:45.418Z,38.50
2022-12-13T13:29:11.876Z,38.60
2022-12-13T13:31:38.386Z,38.60
2022-12-13T13:34:04.865Z,38.60
2022-12-13T13:36:31.335Z,38.50
2022-12-13T13:39:01.456Z,38.60
2022-12-13T13:41:28.346Z,38.60
2022-12-13T13:43:54.802Z,38.60
2022-12-13T13:46:21.317Z,38.30
2022-12-13T13:48:47.857Z,38.50
2022-12-13T13:51:14.325Z,38.70
2022-12-13T13:53:40.780Z,38.50
2022-12-13T13:56:07.254Z,38.60
2022-12-13T13:58:33.723Z,38.60
2022-12-13T14:01:00.205Z,38.30
2022-12-13T14:03:34.190Z,38.20
2022-12-13T14:06:01.362Z,38.50
2022-12-13T14:08:27.873Z,38.40
2022-12-13T14:10:54.374Z,38.30
2022-12-13T14:13:20.832Z,38.40
2022-12-13T14:15:49.495Z,38.40
2022-12-13T14:18:21.445Z,38.30
2022-12-13T14:20:48.391Z,38.50
2022-12-13T14:23:14.888Z,38.40
2022-12-13T14:25:52.354Z,38.30
2022-12-13T14:28:19.147Z,38.50
2022-12-13T14:30:57.208Z,38.50
2022-12-13T14:33:24.550Z,38.60
2022-12-13T14:35:51.314Z,38.40
2022-12-13T14:38:17.807Z,38.20
2022-12-13T14:40:44.297Z,38.20
2022-12-13T14:43:10.785Z,38.50
2022-12-13T14:45:50.708Z,38.40
2022-12-13T14:48:28.375Z,38.50
2022-12-13T14:50:55.574Z,38.70
2022-12-13T14:53:22.345Z,38.60
2022-12-13T14:55:49.043Z,38.70
2022-12-13T14:58:15.520Z,38.70
2022-12-13T15:00:42.153Z,38.50
2022-12-13T15:03:08.727Z,38.50
2022-12-13T15:05:35.249Z,38.20
2022-12-13T15:08:11.030Z,38.30
2022-12-13T15:10:37.999Z,38.30
2022-12-13T15:13:04.504Z,38.30
2022-12-13T15:15:31.006Z,38.40
2022-12-13T15:17:57.491Z,38.40
2022-12-13T15:20:24.115Z,38.30
2022-12-13T15:22:50.664Z,38.50
2022-12-13T15:25:17.160Z,38.40
2022-12-13T15:27:48.269Z,38.50
2022-12-13T15:30:15.275Z,38.40
2022-12-13T15:32:41.761Z,38.30
2022-12-13T15:35:08.244Z,38.50
2022-12-13T15:37:34.724Z,38.60
2022-12-13T15:40:01.240Z,38.50
2022-12-13T15:42:27.727Z,38.20
2022-12-13T15:44:54.212Z,38.10
2022-12-13T15:47:28.609Z,38.20
2022-12-13T15:49:55.756Z,38.10
2022-12-13T15:52:22.241Z,38.10
2022-12-13T15:54:48.715Z,38.20
2022-12-13T15:57:15.196Z,38.40
2022-12-13T15:59:41.686Z,38.30
2022-12-13T16:02:08.439Z,38.20
2022-12-13T16:04:34.944Z,38.20
2022-12-13T16:07:01.427Z,38.30
2022-12-13T16:09:27.931Z,38.30
2022-12-13T16:11:54.438Z,38.30
2022-12-13T16:14:25.940Z,38.40
2022-12-13T16:16:52.979Z,38.30
2022-12-13T16:19:19.567Z,38.10
2022-12-13T16:21:46.067Z,38.20
2022-12-13T16:24:12.535Z,38.50
2022-12-13T16:26:39.042Z,38.20
2022-12-13T16:29:05.532Z,38.10
2022-12-13T16:31:32.103Z,38.10
2022-12-13T16:33:58.603Z,38.30
2022-12-13T16:36:25.101Z,38.30
2022-12-13T16:38:51.606Z,38.50
2022-12-13T16:41:18.145Z,38.60
2022-12-13T16:43:44.647Z,38.60
2022-12-13T16:47:17.278Z,38.50
2022-12-13T16:48:57.586Z,38.20
2022-12-13T16:51:24.085Z,38.30
2022-12-13T16:53:50.608Z,38.30
2022-12-13T16:56:17.110Z,38.30
2022-12-13T16:58:49.719Z,38.50
2022-12-13T17:01:16.575Z,38.30
2022-12-13T17:03:43.166Z,38.20
2022-12-13T17:06:09.661Z,38.50
2022-12-13T17:08:36.141Z,38.20
2022-12-13T17:11:02.619Z,38.40
2022-12-13T17:13:29.679Z,38.40
2022-12-13T17:15:59.440Z,38.20
2022-12-13T17:18:26.391Z,38.00
2022-12-13T17:20:58.890Z,38.10
2022-12-13T17:23:25.840Z,38.10
2022-12-13T17:25:57.935Z,38.10
2022-12-13T17:28:25.306Z,38.10
2022-12-13T17:30:54.650Z,38.30
2022-12-13T17:33:21.581Z,38.20
2022-12-13T17:35:48.055Z,38.20
2022-12-13T17:38:14.542Z,38.40
2022-12-13T17:40:41.053Z,38.40
2022-12-13T17:43:07.513Z,38.10
2022-12-13T17:45:33.975Z,38.10
2022-12-13T17:48:00.453Z,38.10
2022-12-13T17:50:26.921Z,38.10
2022-12-13T17:52:53.397Z,38.30
2022-12-13T17:55:19.887Z,38.30
2022-12-13T17:57:46.360Z,38.40
2022-12-13T18:00:12.824Z,38.20
2022-12-13T18:02:39.377Z,38.10
2022-12-13T18:05:05.918Z,38.10
2022-12-13T18:07:32.410Z,38.40
2022-12-13T18:09:58.870Z,38.30
2022-12-13T18:12:30.118Z,38.30
2022-12-13T18:14:56.559Z,38.20
2022-12-13T18:17:40.463Z,38.10
2022-12-13T18:20:09.547Z,38.10
2022-12-13T18:22:41.432Z,38.00
2022-12-13T18:25:08.921Z,38.20
2022-12-13T18:27:35.388Z,38.30
2022-12-13T18:30:01.864Z,38.00
2022-12-13T18:32:28.341Z,38.00
2022-12-13T18:34:54.946Z,38.00
2022-12-13T18:37:21.440Z,37.80
2022-12-13T18:39:54.802Z,37.90
2022-12-13T18:42:21.468Z,37.70
2022-12-13T18:44:50.843Z,38.00
2022-12-13T18:47:21.451Z,37.80
2022-12-13T18:49:54.969Z,37.90
2022-12-13T18:52:21.975Z,38.00
2022-12-13T18:54:54.366Z,38.00
2022-12-13T18:57:21.379Z,38.00
2022-12-13T18:59:54.006Z,38.00
2022-12-13T19:02:21.300Z,38.00
2022-12-13T19:04:55.514Z,39.30
2022-12-13T19:07:22.219Z,38.80
2022-12-13T19:09:54.922Z,38.00
2022-12-13T19:12:21.725Z,38.00
2022-12-13T19:14:54.758Z,38.10
2022-12-13T19:17:21.737Z,38.10
2022-12-13T19:19:48.533Z,38.00
2022-12-13T19:22:15.069Z,38.10
2022-12-13T19:24:41.537Z,37.90
2022-12-13T19:27:08.015Z,38.00
2022-12-13T19:29:34.485Z,37.90
2022-12-13T19:32:00.957Z,37.80
2022-12-13T19:34:27.780Z,37.80
2022-12-13T19:36:54.294Z,37.90
2022-12-13T19:39:20.787Z,38.00
2022-12-13T19:41:47.259Z,37.90
2022-12-13T19:44:13.748Z,37.60
2022-12-13T19:46:40.383Z,37.70
2022-12-13T19:49:06.910Z,37.70
2022-12-13T19:51:39.297Z,37.80
2022-12-13T19:54:06.466Z,37.80
2022-12-13T19:56:32.944Z,37.80
2022-12-13T19:58:59.439Z,37.90
2022-12-13T20:01:30.326Z,38.00
2022-12-13T20:03:56.871Z,38.10
2022-12-13T20:06:23.336Z,38.20
2022-12-13T20:08:49.834Z,38.20
2022-12-13T20:11:16.300Z,38.10
2022-12-13T20:13:48.221Z,38.00
2022-12-13T20:16:14.851Z,37.90
2022-12-13T20:19:02.426Z,37.80
2022-12-13T20:21:28.933Z,37.80
2022-12-13T20:23:55.476Z,38.00
2022-12-13T20:26:21.949Z,37.70
2022-12-13T20:28:48.447Z,37.90
2022-12-13T20:31:14.976Z,37.90
2022-12-13T20:33:41.526Z,37.90
2022-12-13T20:36:25.304Z,37.90
2022-12-13T20:38:52.230Z,37.80
2022-12-13T20:41:18.708Z,37.80
2022-12-13T20:43:48.155Z,37.90
2022-12-13T20:46:14.946Z,38.90
2022-12-13T20:48:41.517Z,37.90
2022-12-13T20:51:07.979Z,37.90
2022-12-13T20:53:34.449Z,37.90
2022-12-13T20:56:00.911Z,38.00
2022-12-13T20:58:27.377Z,38.80
2022-12-13T21:00:53.873Z,37.80
2022-12-13T21:03:20.346Z,37.80
2022-12-13T21:05:46.838Z,38.00
2022-12-13T21:08:13.306Z,38.70
2022-12-13T21:10:39.783Z,37.90
2022-12-13T21:13:06.239Z,37.70
2022-12-13T21:15:32.702Z,37.70
2022-12-13T21:17:59.174Z,37.80
2022-12-13T21:20:25.655Z,37.90
2022-12-13T21:22:52.160Z,38.80
2022-12-13T21:25:18.621Z,37.90
2022-12-13T21:27:45.078Z,37.70
2022-12-13T21:30:14.895Z,37.90
2022-12-13T21:32:41.343Z,38.70
2022-12-13T21:35:07.801Z,37.80
2022-12-13T21:37:34.260Z,38.70
2022-12-13T21:40:00.749Z,38.90
2022-12-13T21:42:27.211Z,38.50
2022-12-13T21:44:58.898Z,37.70
2022-12-13T21:47:28.408Z,38.70
2022-12-13T21:49:54.875Z,38.90
2022-12-13T21:52:21.335Z,39.00
2022-12-13T21:54:47.804Z,39.00
2022-12-13T21:57:14.265Z,38.90
2022-12-13T21:59:43.541Z,38.90
2022-12-13T22:02:10.051Z,37.70
2022-12-13T22:04:36.569Z,38.60
2022-12-13T22:07:03.038Z,38.60
2022-12-13T22:09:29.494Z,38.80
2022-12-13T22:11:55.962Z,37.90
2022-12-13T22:14:22.436Z,38.70
2022-12-13T22:16:48.978Z,38.60
2022-12-13T22:19:15.534Z,37.60
2022-12-13T22:21:41.992Z,38.60
2022-12-13T22:24:08.449Z,37.70
2022-12-13T22:26:34.917Z,37.70
2022-12-13T22:29:01.449Z,38.60
2022-12-13T22:31:29.900Z,37.50
2022-12-13T22:33:56.566Z,38.40
2022-12-13T22:36:23.050Z,37.40
2022-12-13T22:38:49.504Z,37.30
2022-12-13T22:41:15.994Z,37.40
2022-12-13T22:43:48.489Z,37.30
2022-12-13T22:46:15.080Z,37.40
2022-12-13T22:48:41.550Z,37.40
2022-12-13T22:51:08.001Z,38.40
2022-12-13T22:53:34.477Z,38.50
2022-12-13T22:56:00.994Z,38.40
2022-12-13T22:58:27.969Z,38.70
2022-12-13T23:00:54.788Z,38.50
2022-12-13T23:03:21.378Z,38.50
2022-12-13T23:05:47.883Z,38.60
2022-12-13T23:08:14.355Z,38.50
2022-12-13T23:10:40.859Z,38.50
2022-12-13T23:13:07.347Z,38.80
2022-12-13T23:15:33.795Z,38.70
2022-12-13T23:18:00.251Z,38.50
2022-12-13T23:20:26.754Z,38.40
2022-12-13T23:22:53.214Z,38.50
2022-12-13T23:25:19.687Z,38.60
2022-12-13T23:27:46.156Z,38.40
2022-12-13T23:30:12.631Z,38.10
2022-12-13T23:32:39.116Z,38.40
2022-12-13T23:35:05.559Z,38.30
2022-12-13T23:37:32.014Z,38.60
2022-12-13T23:39:58.494Z,38.60
2022-12-13T23:42:24.976Z,38.50
2022-12-13T23:44:51.433Z,38.50
2022-12-13T23:47:17.909Z,38.40
2022-12-13T23:49:44.359Z,38.50
2022-12-13T23:52:14.843Z,38.00
2022-12-13T23:54:41.315Z,38.20
2022-12-13T23:57:07.836Z,38.40
2022-12-13T23:59:34.318Z,38.30
